createdAt,value
2022-07-27T00:02:42.058Z,48.60
2022-07-27T00:05:31.615Z,48.70
2022-07-27T00:08:24.095Z,49.00
2022-07-27T00:11:13.618Z,49.10
2022-07-27T00:14:03.135Z,49.10
2022-07-27T00:16:52.753Z,49.30
2022-07-27T00:19:42.501Z,49.30
2022-07-27T00:22:32.061Z,49.40
2022-07-27T00:25:23.202Z,49.50
2022-07-27T00:28:12.720Z,49.70
2022-07-27T00:31:02.292Z,49.80
2022-07-27T00:33:51.765Z,49.80
2022-07-27T00:36:41.221Z,49.90
2022-07-27T00:39:31.830Z,49.90
2022-07-27T00:42:28.036Z,49.90
2022-07-27T00:45:17.566Z,50.70
2022-07-27T00:48:07.607Z,50.20
2022-07-27T00:50:58.028Z,50.10
2022-07-27T00:53:48.750Z,50.30
2022-07-27T00:56:38.638Z,50.30
2022-07-27T00:59:29.825Z,50.30
2022-07-27T01:02:20.050Z,50.40
2022-07-27T01:05:12.587Z,50.50
2022-07-27T01:08:02.885Z,50.50
2022-07-27T01:10:53.581Z,50.60
2022-07-27T01:13:44.352Z,50.70
2022-07-27T01:16:35.221Z,50.70
2022-07-27T01:19:24.765Z,50.70
2022-07-27T01:22:15.658Z,50.80
2022-07-27T01:25:05.965Z,50.80
2022-07-27T01:27:55.365Z,50.90
2022-07-27T01:30:45.056Z,50.90
2022-07-27T01:33:34.498Z,51.00
2022-07-27T01:36:23.958Z,51.00
2022-07-27T01:39:15.999Z,51.10
2022-07-27T01:42:06.865Z,51.20
2022-07-27T01:44:56.342Z,51.20
2022-07-27T01:47:45.821Z,51.30
2022-07-27T01:50:35.550Z,51.30
2022-07-27T01:53:25.669Z,51.40
2022-07-27T01:56:16.601Z,51.40
2022-07-27T01:59:06.137Z,51.50
2022-07-27T02:01:56.103Z,51.40
2022-07-27T02:04:45.676Z,51.50
2022-07-27T02:07:35.186Z,51.40
2022-07-27T02:10:25.358Z,51.50
2022-07-27T02:13:22.745Z,51.60
2022-07-27T02:16:17.149Z,51.60
2022-07-27T02:19:07.118Z,51.60
2022-07-27T02:21:58.323Z,51.90
2022-07-27T02:24:47.696Z,51.60
2022-07-27T02:27:37.145Z,51.70
2022-07-27T02:30:28.049Z,51.70
2022-07-27T02:33:18.143Z,51.80
2022-07-27T02:36:08.577Z,51.80
2022-07-27T02:38:58.259Z,51.80
2022-07-27T02:41:49.214Z,51.80
2022-07-27T02:44:38.593Z,51.70
2022-07-27T02:47:29.436Z,51.60
2022-07-27T02:50:18.893Z,51.70
2022-07-27T02:53:08.355Z,51.60
2022-07-27T02:55:58.725Z,51.70
2022-07-27T02:58:48.157Z,51.80
2022-07-27T03:01:38.104Z,51.90
2022-07-27T03:04:29.068Z,51.80
2022-07-27T03:07:18.563Z,51.80
2022-07-27T03:10:09.372Z,51.80
2022-07-27T03:12:59.341Z,51.80
2022-07-27T03:15:48.781Z,51.80
2022-07-27T03:18:38.360Z,51.80
2022-07-27T03:21:29.138Z,51.90
2022-07-27T03:24:18.612Z,51.80
2022-07-27T03:27:08.024Z,51.80
2022-07-27T03:29:57.920Z,51.70
2022-07-27T03:32:48.268Z,51.50
2022-07-27T03:35:37.708Z,51.40
2022-07-27T03:38:28.507Z,51.20
2022-07-27T03:41:18.323Z,51.00
2022-07-27T03:44:08.165Z,50.90
2022-07-27T03:46:57.595Z,50.80
2022-07-27T03:49:47.778Z,50.80
2022-07-27T03:52:37.201Z,50.80
2022-07-27T03:55:28.017Z,50.70
2022-07-27T03:58:18.116Z,50.60
2022-07-27T04:01:07.557Z,50.50
2022-07-27T04:03:56.971Z,50.50
2022-07-27T04:06:46.457Z,50.30
2022-07-27T04:09:37.689Z,50.20
2022-07-27T04:12:30.302Z,50.00
2022-07-27T04:15:21.549Z,50.00
2022-07-27T04:18:10.885Z,50.00
2022-07-27T04:21:03.338Z,49.90
2022-07-27T04:23:52.673Z,50.00
2022-07-27T04:26:42.082Z,50.00
2022-07-27T04:29:32.908Z,50.00
2022-07-27T04:32:23.806Z,50.00
2022-07-27T04:35:13.586Z,50.00
2022-07-27T04:38:02.956Z,50.00
2022-07-27T04:40:57.816Z,50.00
2022-07-27T04:43:47.768Z,50.20
2022-07-27T04:46:38.628Z,50.30
2022-07-27T04:49:28.177Z,50.30
2022-07-27T04:52:17.808Z,50.30
2022-07-27T04:55:08.725Z,50.30
2022-07-27T04:57:58.102Z,50.20
2022-07-27T05:00:47.655Z,50.20
2022-07-27T05:03:38.646Z,50.10
2022-07-27T05:06:28.008Z,50.20
2022-07-27T05:09:22.499Z,50.10
2022-07-27T05:12:12.202Z,49.90
2022-07-27T05:15:01.582Z,49.90
2022-07-27T05:17:52.272Z,49.80
2022-07-27T05:20:43.516Z,49.80
2022-07-27T05:23:32.904Z,49.80
2022-07-27T05:26:23.245Z,49.70
2022-07-27T05:29:13.165Z,49.70
2022-07-27T05:32:02.857Z,49.50
2022-07-27T05:34:52.288Z,49.50
2022-07-27T05:37:43.142Z,49.50
2022-07-27T05:40:33.118Z,49.50
2022-07-27T05:43:22.535Z,49.60
2022-07-27T05:46:11.978Z,49.50
2022-07-27T05:49:02.294Z,49.40
2022-07-27T05:51:52.100Z,49.40
2022-07-27T05:54:42.897Z,49.40
2022-07-27T05:57:32.406Z,49.30
2022-07-27T06:00:21.913Z,49.20
2022-07-27T06:03:11.446Z,49.20
2022-07-27T06:06:18.770Z,49.10
2022-07-27T06:09:08.393Z,49.20
2022-07-27T06:11:59.277Z,49.20
2022-07-27T06:14:51.200Z,49.40
2022-07-27T06:17:42.337Z,49.30
2022-07-27T06:20:32.295Z,49.40
2022-07-27T06:23:21.615Z,49.30
2022-07-27T06:26:11.014Z,49.20
2022-07-27T06:29:01.811Z,49.20
2022-07-27T06:31:51.330Z,49.10
2022-07-27T06:34:43.282Z,49.00
2022-07-27T06:37:32.985Z,49.10
2022-07-27T06:40:23.772Z,49.10
2022-07-27T06:43:15.049Z,49.20
2022-07-27T06:46:14.427Z,49.20
2022-07-27T06:49:04.013Z,49.30
2022-07-27T06:51:53.599Z,49.30
2022-07-27T06:54:43.488Z,49.20
2022-07-27T06:57:33.237Z,49.20
2022-07-27T07:00:23.322Z,49.30
2022-07-27T07:03:14.244Z,49.10
2022-07-27T07:06:04.025Z,49.10
2022-07-27T07:08:53.789Z,49.10
2022-07-27T07:11:43.229Z,49.00
2022-07-27T07:14:32.657Z,48.90
2022-07-27T07:17:22.112Z,48.80
2022-07-27T07:20:14.228Z,48.80
2022-07-27T07:23:04.008Z,48.80
2022-07-27T07:25:53.626Z,48.80
2022-07-27T07:28:43.263Z,48.70
2022-07-27T07:31:33.057Z,48.70
2022-07-27T07:34:22.572Z,48.70
2022-07-27T07:37:13.318Z,48.50
2022-07-27T07:43:14.592Z,48.80
2022-07-27T07:46:04.431Z,48.70
2022-07-27T07:48:54.159Z,48.70
2022-07-27T07:51:43.970Z,48.70
2022-07-27T07:54:35.020Z,48.60
2022-07-27T07:57:25.321Z,48.50
2022-07-27T08:00:16.585Z,48.40
2022-07-27T08:03:06.252Z,48.40
2022-07-27T08:05:55.804Z,48.30
2022-07-27T08:08:45.217Z,48.40
2022-07-27T08:11:36.288Z,48.30
2022-07-27T08:14:26.501Z,48.30
2022-07-27T08:17:17.141Z,48.10
2022-07-27T08:20:08.983Z,48.00
2022-07-27T08:22:58.415Z,47.90
2022-07-27T08:25:48.158Z,47.80
2022-07-27T08:28:39.025Z,47.80
2022-07-27T08:31:52.368Z,48.10
2022-07-27T08:34:37.995Z,48.50
2022-07-27T08:37:27.443Z,48.80
2022-07-27T08:43:27.736Z,48.70
2022-07-27T08:46:20.001Z,48.80
2022-07-27T08:49:10.094Z,48.60
2022-07-27T08:52:00.733Z,48.50
2022-07-27T08:54:50.954Z,48.30
2022-07-27T08:57:40.561Z,48.10
2022-07-27T09:00:30.846Z,48.00
2022-07-27T09:03:24.124Z,47.80
2022-07-27T09:06:13.730Z,47.50
2022-07-27T09:09:03.161Z,47.40
2022-07-27T09:12:11.627Z,47.10
2022-07-27T09:15:15.101Z,46.40
2022-07-27T09:18:19.859Z,46.20
2022-07-27T09:21:19.018Z,46.10
2022-07-27T09:24:23.491Z,46.20
2022-07-27T09:27:32.071Z,46.10
2022-07-27T09:30:23.390Z,45.40
2022-07-27T09:33:12.853Z,45.50
2022-07-27T09:36:02.639Z,45.60
2022-07-27T09:39:00.162Z,45.70
2022-07-27T09:41:53.827Z,45.60
2022-07-27T09:44:46.742Z,45.50
2022-07-27T09:47:42.824Z,45.30
2022-07-27T09:50:35.565Z,45.20
2022-07-27T09:53:42.272Z,45.30
2022-07-27T09:56:34.595Z,45.40
2022-07-27T09:59:24.093Z,45.30
2022-07-27T10:02:17.750Z,45.10
2022-07-27T10:05:08.557Z,45.10
2022-07-27T10:07:58.129Z,45.00
2022-07-27T10:10:48.018Z,44.80
2022-07-27T10:13:43.971Z,44.80
2022-07-27T10:16:35.728Z,44.70
2022-07-27T10:19:32.637Z,44.60
2022-07-27T10:22:54.389Z,44.70
2022-07-27T10:25:45.938Z,44.60
2022-07-27T10:28:53.127Z,45.00
2022-07-27T10:31:44.763Z,45.00
2022-07-27T10:34:38.034Z,45.40
2022-07-27T10:37:29.943Z,45.30
2022-07-27T10:40:36.528Z,45.20
2022-07-27T10:43:25.972Z,45.10
2022-07-27T10:46:21.851Z,45.20
2022-07-27T10:49:21.680Z,45.00
2022-07-27T10:52:45.068Z,44.80
2022-07-27T10:55:51.652Z,44.80
2022-07-27T10:58:49.211Z,44.70
2022-07-27T11:01:58.391Z,44.70
2022-07-27T11:04:51.728Z,43.70
2022-07-27T11:08:05.021Z,43.80
2022-07-27T11:10:56.133Z,43.30
2022-07-27T11:13:46.360Z,43.20
2022-07-27T11:16:54.752Z,43.00
2022-07-27T11:19:46.843Z,42.60
2022-07-27T11:25:59.231Z,42.30
2022-07-27T11:28:48.837Z,42.00
2022-07-27T11:31:55.263Z,42.60
2022-07-27T11:34:46.832Z,42.40
2022-07-27T11:37:36.597Z,42.70
2022-07-27T11:43:56.739Z,41.80
2022-07-27T11:46:50.814Z,42.10
2022-07-27T11:49:41.551Z,41.50
2022-07-27T11:52:31.360Z,41.40
2022-07-27T11:55:21.437Z,41.00
2022-07-27T11:58:21.533Z,41.00
2022-07-27T12:01:11.659Z,41.00
2022-07-27T12:04:16.264Z,40.90
2022-07-27T12:07:11.681Z,40.30
2022-07-27T12:10:07.893Z,40.40
2022-07-27T12:12:57.406Z,40.30
2022-07-27T12:15:57.958Z,40.30
2022-07-27T12:18:48.324Z,40.30
2022-07-27T12:21:39.322Z,40.20
2022-07-27T12:24:37.382Z,40.10
2022-07-27T12:27:29.089Z,40.00
2022-07-27T12:30:20.183Z,40.10
2022-07-27T12:33:27.203Z,39.90
2022-07-27T12:36:27.490Z,39.80
2022-07-27T12:39:29.913Z,39.60
2022-07-27T12:42:19.394Z,39.80
2022-07-27T12:45:18.796Z,40.10
2022-07-27T12:48:11.220Z,40.00
2022-07-27T12:51:03.800Z,40.10
2022-07-27T12:53:53.870Z,40.20
2022-07-27T12:56:44.776Z,40.20
2022-07-27T12:59:34.374Z,40.20
2022-07-27T13:02:23.864Z,40.00
2022-07-27T13:05:17.629Z,40.00
2022-07-27T13:08:08.199Z,39.90
2022-07-27T13:11:00.871Z,40.00
2022-07-27T13:13:51.856Z,39.80
2022-07-27T13:16:41.329Z,39.80
2022-07-27T13:19:30.943Z,39.90
2022-07-27T13:22:20.879Z,40.00
2022-07-27T13:25:16.295Z,40.10
2022-07-27T13:28:06.913Z,40.40
2022-07-27T13:30:58.072Z,40.50
2022-07-27T13:33:47.528Z,40.60
2022-07-27T13:36:40.614Z,40.60
2022-07-27T13:39:30.026Z,40.60
2022-07-27T13:42:23.951Z,40.60
2022-07-27T13:45:13.540Z,41.20
2022-07-27T13:48:04.385Z,40.70
2022-07-27T13:50:54.177Z,40.80
2022-07-27T13:53:43.630Z,40.70
2022-07-27T13:56:34.552Z,40.60
2022-07-27T13:59:24.094Z,40.50
2022-07-27T14:02:14.717Z,40.40
2022-07-27T14:05:08.648Z,40.30
2022-07-27T14:07:58.145Z,40.10
2022-07-27T14:10:48.965Z,40.00
2022-07-27T14:13:40.870Z,40.00
2022-07-27T14:16:30.309Z,40.10
2022-07-27T14:19:20.415Z,40.30
2022-07-27T14:22:12.135Z,40.40
2022-07-27T14:25:01.698Z,40.40
2022-07-27T14:27:51.286Z,40.40
2022-07-27T14:30:40.787Z,40.40
2022-07-27T14:33:36.840Z,40.40
2022-07-27T14:36:26.627Z,40.40
2022-07-27T14:39:17.895Z,40.40
2022-07-27T14:42:07.854Z,40.40
2022-07-27T14:44:57.353Z,40.40
2022-07-27T14:47:46.799Z,40.50
2022-07-27T14:50:36.290Z,40.60
2022-07-27T14:53:26.068Z,40.60
2022-07-27T14:56:17.423Z,40.50
2022-07-27T14:59:07.074Z,40.20
2022-07-27T15:01:56.445Z,40.00
2022-07-27T15:04:45.875Z,40.40
2022-07-27T15:07:36.383Z,39.60
2022-07-27T15:10:25.866Z,39.50
2022-07-27T15:13:16.652Z,39.40
2022-07-27T15:16:07.397Z,39.40
2022-07-27T15:18:56.883Z,39.50
2022-07-27T15:21:47.142Z,39.60
2022-07-27T15:24:38.469Z,39.70
2022-07-27T15:27:28.013Z,39.80
2022-07-27T15:30:19.035Z,39.80
2022-07-27T15:33:08.958Z,39.90
2022-07-27T15:35:58.450Z,40.00
2022-07-27T15:38:48.107Z,40.00
2022-07-27T15:41:39.369Z,40.10
2022-07-27T15:44:28.716Z,40.10
2022-07-27T15:47:19.558Z,40.70
2022-07-27T15:50:09.769Z,40.00
2022-07-27T15:52:59.482Z,39.90
2022-07-27T15:55:51.524Z,39.70
2022-07-27T15:58:41.133Z,39.70
2022-07-27T16:01:35.431Z,39.50
2022-07-27T16:04:27.243Z,39.50
2022-07-27T16:07:16.823Z,39.50
2022-07-27T16:10:07.698Z,40.10
2022-07-27T16:12:57.327Z,39.60
2022-07-27T16:16:04.149Z,39.70
2022-07-27T16:18:53.833Z,39.80
2022-07-27T16:21:54.179Z,39.70
2022-07-27T16:24:45.029Z,39.90
2022-07-27T16:27:34.583Z,40.00
2022-07-27T16:30:24.239Z,40.10
2022-07-27T16:33:13.653Z,40.10
2022-07-27T16:36:03.177Z,40.10
2022-07-27T16:38:54.740Z,39.90
2022-07-27T16:41:44.298Z,39.70
2022-07-27T16:44:35.615Z,39.60
2022-07-27T16:47:25.006Z,39.50
2022-07-27T16:50:14.459Z,39.50
2022-07-27T16:53:03.914Z,39.50
2022-07-27T16:55:57.693Z,39.40
2022-07-27T16:58:47.133Z,39.40
2022-07-27T17:01:36.689Z,39.40
2022-07-27T17:04:27.959Z,39.20
2022-07-27T17:07:17.573Z,39.00
2022-07-27T17:10:08.280Z,39.00
2022-07-27T17:12:59.298Z,39.10
2022-07-27T17:15:49.050Z,39.00
2022-07-27T17:18:40.444Z,38.90
2022-07-27T17:21:29.998Z,38.80
2022-07-27T17:24:19.347Z,38.80
2022-07-27T17:27:08.811Z,38.70
2022-07-27T17:29:59.512Z,38.60
2022-07-27T17:32:48.934Z,38.60
2022-07-27T17:35:38.617Z,38.50
2022-07-27T17:38:28.224Z,38.60
2022-07-27T17:41:24.114Z,38.50
2022-07-27T17:44:14.254Z,38.40
2022-07-27T17:47:05.148Z,38.40
2022-07-27T17:49:54.482Z,38.30
2022-07-27T17:52:43.964Z,38.30
2022-07-27T17:55:34.239Z,38.30
2022-07-27T17:58:30.168Z,38.30
2022-07-27T18:01:46.143Z,38.30
2022-07-27T18:04:38.762Z,38.20
2022-07-27T18:07:29.081Z,38.30
2022-07-27T18:10:27.211Z,38.20
2022-07-27T18:13:16.744Z,38.10
2022-07-27T18:16:06.463Z,38.10
2022-07-27T18:18:56.027Z,38.10
2022-07-27T18:21:46.963Z,38.10
2022-07-27T18:24:36.506Z,38.20
2022-07-27T18:27:26.128Z,38.20
2022-07-27T18:30:31.314Z,38.20
2022-07-27T18:33:36.767Z,38.20
2022-07-27T18:36:26.755Z,38.20
2022-07-27T18:39:17.591Z,38.20
2022-07-27T18:42:07.081Z,38.20
2022-07-27T18:44:56.720Z,38.20
2022-07-27T18:47:49.339Z,38.20
2022-07-27T18:50:40.207Z,38.20
2022-07-27T18:53:29.862Z,38.20
2022-07-27T18:56:21.460Z,38.20
2022-07-27T18:59:11.176Z,38.20
2022-07-27T19:02:00.870Z,38.20
2022-07-27T19:04:53.834Z,38.30
2022-07-27T19:07:44.725Z,38.30
2022-07-27T19:10:35.998Z,38.30
2022-07-27T19:13:26.804Z,38.40
2022-07-27T19:16:16.350Z,38.40
2022-07-27T19:19:11.616Z,38.50
2022-07-27T19:22:03.755Z,38.60
2022-07-27T19:24:55.053Z,38.40
2022-07-27T19:27:45.326Z,38.60
2022-07-27T19:30:38.743Z,38.70
2022-07-27T19:33:28.167Z,38.70
2022-07-27T19:36:17.742Z,38.70
2022-07-27T19:39:08.274Z,38.80
2022-07-27T19:41:57.952Z,38.80
2022-07-27T19:44:47.796Z,38.80
2022-07-27T19:47:38.684Z,38.90
2022-07-27T19:50:28.228Z,39.00
2022-07-27T19:53:18.596Z,39.10
2022-07-27T19:56:08.048Z,39.10
2022-07-27T19:58:57.539Z,39.10
2022-07-27T20:01:47.852Z,39.10
2022-07-27T20:04:41.430Z,39.10
2022-07-27T20:07:30.995Z,39.30
2022-07-27T20:10:21.622Z,39.30
2022-07-27T20:13:11.197Z,39.30
2022-07-27T20:16:00.671Z,39.40
2022-07-27T20:18:50.179Z,39.40
2022-07-27T20:21:41.086Z,39.40
2022-07-27T20:24:30.539Z,39.50
2022-07-27T20:27:20.365Z,39.50
2022-07-27T20:30:12.446Z,39.60
2022-07-27T20:33:02.434Z,39.70
2022-07-27T20:35:51.800Z,39.60
2022-07-27T20:38:42.917Z,39.80
2022-07-27T20:41:32.304Z,39.70
2022-07-27T20:44:21.988Z,39.80
2022-07-27T20:47:12.268Z,39.90
2022-07-27T20:50:01.645Z,39.90
2022-07-27T20:52:51.050Z,39.90
2022-07-27T20:55:42.816Z,40.10
2022-07-27T20:58:33.270Z,40.10
2022-07-27T21:01:23.039Z,40.20
2022-07-27T21:04:12.491Z,40.20
2022-07-27T21:07:01.834Z,40.30
2022-07-27T21:09:51.293Z,40.40
2022-07-27T21:12:42.153Z,40.40
2022-07-27T21:15:33.829Z,40.60
2022-07-27T21:18:23.694Z,40.70
2022-07-27T21:21:13.135Z,40.70
2022-07-27T21:24:19.920Z,40.70
2022-07-27T21:27:09.422Z,40.80
2022-07-27T21:30:00.242Z,40.80
2022-07-27T21:32:49.735Z,40.80
2022-07-27T21:35:39.702Z,40.90
2022-07-27T21:38:29.118Z,40.90
2022-07-27T21:41:18.540Z,41.00
2022-07-27T21:44:08.098Z,41.00
2022-07-27T21:46:58.971Z,41.00
2022-07-27T21:49:50.069Z,41.00
2022-07-27T21:52:39.578Z,41.00
2022-07-27T21:55:28.942Z,40.90
2022-07-27T21:58:18.382Z,41.10
2022-07-27T22:01:09.153Z,41.10
2022-07-27T22:04:00.090Z,41.10
2022-07-27T22:06:49.529Z,41.10
2022-07-27T22:09:42.366Z,41.30
2022-07-27T22:12:33.557Z,41.30
2022-07-27T22:15:22.909Z,41.30
2022-07-27T22:18:12.315Z,41.30
2022-07-27T22:21:03.133Z,41.20
2022-07-27T22:23:52.589Z,41.20
2022-07-27T22:26:42.003Z,41.30
2022-07-27T22:29:31.377Z,41.30
2022-07-27T22:32:22.920Z,41.30
2022-07-27T22:35:12.489Z,41.50
2022-07-27T22:38:03.382Z,41.40
2022-07-27T22:40:52.743Z,41.40
2022-07-27T22:43:42.216Z,41.40
2022-07-27T22:46:31.687Z,41.40
2022-07-27T22:49:22.704Z,41.50
2022-07-27T22:52:12.438Z,41.60
2022-07-27T22:55:04.520Z,41.60
2022-07-27T22:57:53.902Z,41.70
2022-07-27T23:00:43.366Z,41.80
2022-07-27T23:03:32.732Z,41.80
2022-07-27T23:06:22.115Z,41.70
2022-07-27T23:09:12.311Z,41.90
2022-07-27T23:12:03.232Z,42.00
2022-07-27T23:14:52.651Z,42.00
2022-07-27T23:17:41.959Z,41.90
2022-07-27T23:20:31.291Z,42.10
2022-07-27T23:23:21.722Z,42.00
2022-07-27T23:26:11.045Z,42.10
2022-07-27T23:29:02.130Z,42.00
2022-07-27T23:31:51.534Z,42.20
2022-07-27T23:34:41.098Z,42.90
2022-07-27T23:37:30.467Z,42.30
2022-07-27T23:40:20.023Z,42.40
2022-07-27T23:43:09.315Z,42.50
2022-07-27T23:46:00.171Z,42.50
2022-07-27T23:48:49.814Z,42.50
2022-07-27T23:51:39.180Z,42.50
2022-07-27T23:54:28.549Z,42.70
2022-07-27T23:57:17.777Z,42.70
